sensor_id;sensor_type;location;lat;lon;timestamp;pressure;altitude;pressure_sealevel;temperature;humidity
50484;BME280;36409;52.168;20.878;2023-04-27T00:00:41;100535.38;;;1.49;60.82
50484;BME280;36409;52.168;20.878;2023-04-27T00:03:18;100529.30;;;1.46;61.03
50484;BME280;36409;52.168;20.878;2023-04-27T00:05:51;100528.32;;;1.42;61.95
50484;BME280;36409;52.168;20.878;2023-04-27T00:08:24;100534.23;;;1.38;61.33
50484;BME280;36409;52.168;20.878;2023-04-27T00:10:58;100534.03;;;1.30;60.92
50484;BME280;36409;52.168;20.878;2023-04-27T00:13:31;100530.42;;;1.23;62.07
50484;BME280;36409;52.168;20.878;2023-04-27T00:16:07;100538.84;;;1.18;61.96
50484;BME280;36409;52.168;20.878;2023-04-27T00:18:40;100537.90;;;1.14;61.59
50484;BME280;36409;52.168;20.878;2023-04-27T00:21:13;100535.27;;;1.13;62.00
50484;BME280;36409;52.168;20.878;2023-04-27T00:23:46;100536.13;;;1.12;62.08
50484;BME280;36409;52.168;20.878;2023-04-27T00:26:21;100539.52;;;1.11;61.81
50484;BME280;36409;52.168;20.878;2023-04-27T00:28:54;100545.40;;;1.06;61.63
50484;BME280;36409;52.168;20.878;2023-04-27T00:31:27;100538.42;;;1.02;62.10
50484;BME280;36409;52.168;20.878;2023-04-27T00:34:00;100545.13;;;0.96;61.52
50484;BME280;36409;52.168;20.878;2023-04-27T00:36:33;100553.56;;;0.91;62.34
50484;BME280;36409;52.168;20.878;2023-04-27T00:39:06;100549.13;;;0.86;61.66
50484;BME280;36409;52.168;20.878;2023-04-27T00:41:41;100551.59;;;0.83;62.27
50484;BME280;36409;52.168;20.878;2023-04-27T00:44:13;100550.67;;;0.81;62.13
50484;BME280;36409;52.168;20.878;2023-04-27T00:46:53;100551.47;;;0.78;62.33
50484;BME280;36409;52.168;20.878;2023-04-27T00:49:28;100551.34;;;0.73;62.63
50484;BME280;36409;52.168;20.878;2023-04-27T00:52:01;100553.78;;;0.69;62.09
50484;BME280;36409;52.168;20.878;2023-04-27T00:54:33;100551.11;;;0.66;62.29
50484;BME280;36409;52.168;20.878;2023-04-27T00:57:06;100551.90;;;0.63;62.87
50484;BME280;36409;52.168;20.878;2023-04-27T00:59:39;100554.47;;;0.63;62.42
50484;BME280;36409;52.168;20.878;2023-04-27T01:02:12;100556.15;;;0.63;62.72
50484;BME280;36409;52.168;20.878;2023-04-27T01:04:45;100557.04;;;0.63;62.35
50484;BME280;36409;52.168;20.878;2023-04-27T01:07:17;100550.16;;;0.62;62.80
50484;BME280;36409;52.168;20.878;2023-04-27T01:09:52;100556.11;;;0.61;62.83
50484;BME280;36409;52.168;20.878;2023-04-27T01:12:26;100560.33;;;0.59;62.89
50484;BME280;36409;52.168;20.878;2023-04-27T01:15:00;100566.30;;;0.58;62.96
50484;BME280;36409;52.168;20.878;2023-04-27T01:17:33;100567.05;;;0.54;62.87
50484;BME280;36409;52.168;20.878;2023-04-27T01:20:09;100562.66;;;0.51;62.99
50484;BME280;36409;52.168;20.878;2023-04-27T01:22:42;100561.71;;;0.48;62.65
50484;BME280;36409;52.168;20.878;2023-04-27T01:25:15;100564.24;;;0.46;63.03
50484;BME280;36409;52.168;20.878;2023-04-27T01:27:47;100570.17;;;0.43;62.76
50484;BME280;36409;52.168;20.878;2023-04-27T01:30:20;100569.17;;;0.40;63.21
50484;BME280;36409;52.168;20.878;2023-04-27T01:32:54;100566.58;;;0.38;62.77
50484;BME280;36409;52.168;20.878;2023-04-27T01:35:28;100563.08;;;0.36;62.84
50484;BME280;36409;52.168;20.878;2023-04-27T01:38:03;100563.02;;;0.33;63.13
50484;BME280;36409;52.168;20.878;2023-04-27T01:40:36;100560.34;;;0.30;63.39
50484;BME280;36409;52.168;20.878;2023-04-27T01:43:08;100561.95;;;0.26;63.45
50484;BME280;36409;52.168;20.878;2023-04-27T01:45:41;100564.41;;;0.23;63.69
50484;BME280;36409;52.168;20.878;2023-04-27T01:48:13;100571.08;;;0.18;63.57
50484;BME280;36409;52.168;20.878;2023-04-27T01:50:47;100579.53;;;0.14;63.06
50484;BME280;36409;52.168;20.878;2023-04-27T01:53:20;100579.32;;;0.08;63.91
50484;BME280;36409;52.168;20.878;2023-04-27T01:55:53;100584.31;;;0.03;63.53
50484;BME280;36409;52.168;20.878;2023-04-27T01:58:28;100585.20;;;0.04;63.93
50484;BME280;36409;52.168;20.878;2023-04-27T02:01:01;100585.23;;;0.05;63.67
50484;BME280;36409;52.168;20.878;2023-04-27T02:03:36;100580.92;;;0.04;63.74
50484;BME280;36409;52.168;20.878;2023-04-27T02:06:10;100578.25;;;0.01;63.72
50484;BME280;36409;52.168;20.878;2023-04-27T02:08:43;100580.78;;;-0.01;63.49
50484;BME280;36409;52.168;20.878;2023-04-27T02:11:17;100579.10;;;0.00;63.46
50484;BME280;36409;52.168;20.878;2023-04-27T02:13:49;100581.59;;;-0.02;63.50
50484;BME280;36409;52.168;20.878;2023-04-27T02:16:22;100582.42;;;-0.03;63.81
50484;BME280;36409;52.168;20.878;2023-04-27T02:18:55;100580.67;;;-0.04;64.09
50484;BME280;36409;52.168;20.878;2023-04-27T02:21:29;100579.85;;;-0.03;64.42
50484;BME280;36409;52.168;20.878;2023-04-27T02:24:04;100576.36;;;-0.05;64.42
50484;BME280;36409;52.168;20.878;2023-04-27T02:26:37;100580.63;;;-0.05;64.27
50484;BME280;36409;52.168;20.878;2023-04-27T02:29:11;100572.83;;;-0.08;64.18
50484;BME280;36409;52.168;20.878;2023-04-27T02:31:45;100570.33;;;-0.07;64.42
50484;BME280;36409;52.168;20.878;2023-04-27T02:34:18;100567.62;;;-0.11;64.01
50484;BME280;36409;52.168;20.878;2023-04-27T02:36:51;100573.57;;;-0.12;64.19
50484;BME280;36409;52.168;20.878;2023-04-27T02:39:24;100573.34;;;-0.19;64.45
50484;BME280;36409;52.168;20.878;2023-04-27T02:41:56;100580.12;;;-0.21;64.05
50484;BME280;36409;52.168;20.878;2023-04-27T02:44:30;100590.34;;;-0.22;64.86
50484;BME280;36409;52.168;20.878;2023-04-27T02:47:04;100593.77;;;-0.22;63.93
50484;BME280;36409;52.168;20.878;2023-04-27T02:49:37;100586.92;;;-0.23;64.19
50484;BME280;36409;52.168;20.878;2023-04-27T02:52:10;100591.98;;;-0.24;64.41
50484;BME280;36409;52.168;20.878;2023-04-27T02:54:43;100593.58;;;-0.28;64.73
50484;BME280;36409;52.168;20.878;2023-04-27T02:57:17;100592.72;;;-0.28;64.49
50484;BME280;36409;52.168;20.878;2023-04-27T02:59:52;100591.02;;;-0.28;64.46
50484;BME280;36409;52.168;20.878;2023-04-27T03:02:25;100588.41;;;-0.29;64.52
50484;BME280;36409;52.168;20.878;2023-04-27T03:05:00;100596.84;;;-0.32;64.63
50484;BME280;36409;52.168;20.878;2023-04-27T03:07:34;100589.16;;;-0.32;64.96
50484;BME280;36409;52.168;20.878;2023-04-27T03:10:08;100592.50;;;-0.35;64.65
50484;BME280;36409;52.168;20.878;2023-04-27T03:12:41;100595.02;;;-0.36;64.71
50484;BME280;36409;52.168;20.878;2023-04-27T03:15:13;100595.95;;;-0.34;64.62
50484;BME280;36409;52.168;20.878;2023-04-27T03:17:45;100594.25;;;-0.34;65.14
50484;BME280;36409;52.168;20.878;2023-04-27T03:20:20;100600.23;;;-0.33;64.81
50484;BME280;36409;52.168;20.878;2023-04-27T03:22:53;100603.73;;;-0.31;64.93
50484;BME280;36409;52.168;20.878;2023-04-27T03:25:26;100602.91;;;-0.30;64.91
50484;BME280;36409;52.168;20.878;2023-04-27T03:28:01;100597.78;;;-0.30;64.76
50484;BME280;36409;52.168;20.878;2023-04-27T03:30:37;100601.28;;;-0.28;64.78
50484;BME280;36409;52.168;20.878;2023-04-27T03:33:09;100595.33;;;-0.27;64.81
50484;BME280;36409;52.168;20.878;2023-04-27T03:35:52;100599.68;;;-0.24;65.19
50484;BME280;36409;52.168;20.878;2023-04-27T03:38:26;100598.91;;;-0.22;64.90
50484;BME280;36409;52.168;20.878;2023-04-27T03:41:02;100595.59;;;-0.19;65.40
50484;BME280;36409;52.168;20.878;2023-04-27T03:43:34;100593.95;;;-0.17;64.99
50484;BME280;36409;52.168;20.878;2023-04-27T03:46:12;100603.44;;;-0.14;65.12
50484;BME280;36409;52.168;20.878;2023-04-27T03:48:56;100605.11;;;-0.15;64.99
50484;BME280;36409;52.168;20.878;2023-04-27T03:51:30;100610.36;;;-0.12;65.56
50484;BME280;36409;52.168;20.878;2023-04-27T03:54:03;100614.62;;;-0.12;65.22
50484;BME280;36409;52.168;20.878;2023-04-27T03:56:37;100617.27;;;-0.09;65.29
50484;BME280;36409;52.168;20.878;2023-04-27T03:59:09;100623.41;;;-0.06;65.32
50484;BME280;36409;52.168;20.878;2023-04-27T04:01:48;100624.38;;;-0.02;65.02
50484;BME280;36409;52.168;20.878;2023-04-27T04:04:20;100630.59;;;0.05;65.84
50484;BME280;36409;52.168;20.878;2023-04-27T04:06:54;100626.50;;;0.11;65.69
50484;BME280;36409;52.168;20.878;2023-04-27T04:09:28;100631.03;;;0.19;66.04
50484;BME280;36409;52.168;20.878;2023-04-27T04:12:02;100628.75;;;0.28;65.53
50484;BME280;36409;52.168;20.878;2023-04-27T04:14:34;100632.92;;;0.52;66.01
50484;BME280;36409;52.168;20.878;2023-04-27T04:17:09;100630.96;;;1.97;65.96
50484;BME280;36409;52.168;20.878;2023-04-27T04:19:43;100632.41;;;2.59;65.71
50484;BME280;36409;52.168;20.878;2023-04-27T04:22:16;100627.64;;;4.14;64.81
50484;BME280;36409;52.168;20.878;2023-04-27T04:24:49;100622.94;;;5.88;64.37
50484;BME280;36409;52.168;20.878;2023-04-27T04:27:22;100622.17;;;7.50;64.03
50484;BME280;36409;52.168;20.878;2023-04-27T04:29:55;100620.41;;;8.93;63.80
50484;BME280;36409;52.168;20.878;2023-04-27T04:32:29;100613.48;;;10.30;62.37
50484;BME280;36409;52.168;20.878;2023-04-27T04:35:01;100618.05;;;11.63;62.33
50484;BME280;36409;52.168;20.878;2023-04-27T04:37:36;100611.53;;;12.90;61.67
50484;BME280;36409;52.168;20.878;2023-04-27T04:40:12;100617.31;;;13.88;60.19
50484;BME280;36409;52.168;20.878;2023-04-27T04:42:45;100617.25;;;14.60;59.94
50484;BME280;36409;52.168;20.878;2023-04-27T04:45:18;100614.62;;;15.53;58.40
50484;BME280;36409;52.168;20.878;2023-04-27T04:47:52;100616.87;;;16.46;57.92
50484;BME280;36409;52.168;20.878;2023-04-27T04:50:27;100622.44;;;17.59;57.24
50484;BME280;36409;52.168;20.878;2023-04-27T04:53:03;100616.30;;;18.46;55.50
50484;BME280;36409;52.168;20.878;2023-04-27T04:55:36;100618.56;;;19.14;53.70
50484;BME280;36409;52.168;20.878;2023-04-27T04:58:10;100622.59;;;19.79;53.48
50484;BME280;36409;52.168;20.878;2023-04-27T05:00:45;100614.81;;;20.47;52.43
50484;BME280;36409;52.168;20.878;2023-04-27T05:03:19;100622.17;;;21.09;51.59
50484;BME280;36409;52.168;20.878;2023-04-27T05:05:52;100623.59;;;21.81;50.63
50484;BME280;36409;52.168;20.878;2023-04-27T05:08:25;100626.26;;;22.42;49.72
50484;BME280;36409;52.168;20.878;2023-04-27T05:11:00;100629.55;;;23.05;48.95
50484;BME280;36409;52.168;20.878;2023-04-27T05:13:32;100632.67;;;23.68;47.52
50484;BME280;36409;52.168;20.878;2023-04-27T05:16:06;100628.25;;;23.54;46.66
50484;BME280;36409;52.168;20.878;2023-04-27T05:18:39;100627.81;;;24.02;45.70
50484;BME280;36409;52.168;20.878;2023-04-27T05:21:16;100630.02;;;24.61;45.35
50484;BME280;36409;52.168;20.878;2023-04-27T05:23:50;100625.93;;;25.33;44.19
50484;BME280;36409;52.168;20.878;2023-04-27T05:26:23;100621.23;;;25.85;43.25
50484;BME280;36409;52.168;20.878;2023-04-27T05:28:54;100631.05;;;26.33;42.70
50484;BME280;36409;52.168;20.878;2023-04-27T05:31:28;100624.75;;;26.57;42.79
50484;BME280;36409;52.168;20.878;2023-04-27T05:34:00;100629.31;;;26.79;41.89
50484;BME280;36409;52.168;20.878;2023-04-27T05:36:33;100632.92;;;26.67;41.16
50484;BME280;36409;52.168;20.878;2023-04-27T05:39:06;100637.68;;;25.43;40.91
50484;BME280;36409;52.168;20.878;2023-04-27T05:41:38;100637.50;;;23.48;41.55
50484;BME280;36409;52.168;20.878;2023-04-27T05:44:11;100644.14;;;21.93;41.19
50484;BME280;36409;52.168;20.878;2023-04-27T05:46:43;100646.14;;;20.57;40.81
50484;BME280;36409;52.168;20.878;2023-04-27T05:49:16;100648.55;;;19.14;41.32
50484;BME280;36409;52.168;20.878;2023-04-27T05:51:49;100656.77;;;18.26;41.11
50484;BME280;36409;52.168;20.878;2023-04-27T05:54:21;100651.23;;;17.65;41.55
50484;BME280;36409;52.168;20.878;2023-04-27T05:56:54;100651.27;;;17.18;41.92
50484;BME280;36409;52.168;20.878;2023-04-27T05:59:27;100659.11;;;17.43;41.49
50484;BME280;36409;52.168;20.878;2023-04-27T06:02:00;100659.11;;;18.11;40.68
50484;BME280;36409;52.168;20.878;2023-04-27T06:04:33;100654.54;;;17.70;40.79
50484;BME280;36409;52.168;20.878;2023-04-27T06:07:13;100658.72;;;17.06;41.23
50484;BME280;36409;52.168;20.878;2023-04-27T06:09:48;100657.77;;;16.04;41.43
50484;BME280;36409;52.168;20.878;2023-04-27T06:12:21;100663.05;;;15.16;42.29
50484;BME280;36409;52.168;20.878;2023-04-27T06:14:55;100669.33;;;14.44;42.31
50484;BME280;36409;52.168;20.878;2023-04-27T06:17:28;100668.53;;;13.67;43.25
50484;BME280;36409;52.168;20.878;2023-04-27T06:20:01;100679.41;;;13.03;43.91
50484;BME280;36409;52.168;20.878;2023-04-27T06:22:36;100678.05;;;12.33;43.07
50484;BME280;36409;52.168;20.878;2023-04-27T06:25:09;100680.31;;;11.97;44.18
50484;BME280;36409;52.168;20.878;2023-04-27T06:27:42;100673.84;;;11.63;44.47
50484;BME280;36409;52.168;20.878;2023-04-27T06:30:16;100677.80;;;11.25;45.18
50484;BME280;36409;52.168;20.878;2023-04-27T06:32:49;100679.83;;;10.98;44.76
50484;BME280;36409;52.168;20.878;2023-04-27T06:35:22;100684.43;;;10.76;45.33
50484;BME280;36409;52.168;20.878;2023-04-27T06:37:55;100684.20;;;10.97;45.84
50484;BME280;36409;52.168;20.878;2023-04-27T06:40:29;100680.95;;;11.50;45.23
50484;BME280;36409;52.168;20.878;2023-04-27T06:43:01;100679.90;;;12.26;44.89
50484;BME280;36409;52.168;20.878;2023-04-27T06:45:34;100674.83;;;13.14;44.44
50484;BME280;36409;52.168;20.878;2023-04-27T06:48:06;100678.35;;;14.69;43.58
50484;BME280;36409;52.168;20.878;2023-04-27T06:50:39;100676.37;;;16.27;42.85
50484;BME280;36409;52.168;20.878;2023-04-27T06:53:11;100671.50;;;16.92;42.81
50484;BME280;36409;52.168;20.878;2023-04-27T06:55:44;100676.84;;;16.90;42.99
50484;BME280;36409;52.168;20.878;2023-04-27T06:58:18;100687.18;;;17.22;42.24
50484;BME280;36409;52.168;20.878;2023-04-27T07:00:51;100685.21;;;17.51;40.97
50484;BME280;36409;52.168;20.878;2023-04-27T07:03:26;100688.37;;;17.13;41.79
50484;BME280;36409;52.168;20.878;2023-04-27T07:05:59;100682.48;;;16.54;41.99
50484;BME280;36409;52.168;20.878;2023-04-27T07:08:32;100689.41;;;16.57;42.12
50484;BME280;36409;52.168;20.878;2023-04-27T07:11:05;100691.46;;;16.74;42.16
50484;BME280;36409;52.168;20.878;2023-04-27T07:13:37;100683.92;;;16.38;42.76
50484;BME280;36409;52.168;20.878;2023-04-27T07:16:10;100682.55;;;16.52;42.12
50484;BME280;36409;52.168;20.878;2023-04-27T07:18:42;100688.00;;;16.46;41.61
50484;BME280;36409;52.168;20.878;2023-04-27T07:21:15;100688.36;;;16.09;42.58
50484;BME280;36409;52.168;20.878;2023-04-27T07:23:48;100689.53;;;16.27;41.94
50484;BME280;36409;52.168;20.878;2023-04-27T07:26:21;100689.38;;;16.83;41.15
50484;BME280;36409;52.168;20.878;2023-04-27T07:28:54;100695.66;;;16.79;41.49
50484;BME280;36409;52.168;20.878;2023-04-27T07:31:28;100692.45;;;16.44;42.02
50484;BME280;36409;52.168;20.878;2023-04-27T07:34:02;100683.92;;;16.38;41.97
50484;BME280;36409;52.168;20.878;2023-04-27T07:36:35;100693.38;;;16.16;41.26
50484;BME280;36409;52.168;20.878;2023-04-27T07:39:07;100693.97;;;15.68;41.72
50484;BME280;36409;52.168;20.878;2023-04-27T07:41:40;100693.45;;;14.59;42.78
50484;BME280;36409;52.168;20.878;2023-04-27T07:44:12;100693.55;;;13.82;42.72
50484;BME280;36409;52.168;20.878;2023-04-27T07:46:46;100699.94;;;13.26;43.92
50484;BME280;36409;52.168;20.878;2023-04-27T07:49:19;100702.95;;;13.06;45.08
50484;BME280;36409;52.168;20.878;2023-04-27T07:51:52;100698.22;;;13.25;44.11
50484;BME280;36409;52.168;20.878;2023-04-27T07:54:24;100701.59;;;13.74;44.31
50484;BME280;36409;52.168;20.878;2023-04-27T07:56:57;100704.00;;;14.57;43.23
50484;BME280;36409;52.168;20.878;2023-04-27T07:59:30;100701.38;;;14.21;43.89
50484;BME280;36409;52.168;20.878;2023-04-27T08:02:03;100703.36;;;14.47;43.43
50484;BME280;36409;52.168;20.878;2023-04-27T08:04:49;100708.14;;;13.94;44.53
50484;BME280;36409;52.168;20.878;2023-04-27T08:07:21;100716.95;;;13.50;44.55
50484;BME280;36409;52.168;20.878;2023-04-27T08:09:54;100715.25;;;13.01;44.67
50484;BME280;36409;52.168;20.878;2023-04-27T08:12:28;100706.31;;;12.64;44.62
50484;BME280;36409;52.168;20.878;2023-04-27T08:15:01;100710.78;;;12.59;46.10
50484;BME280;36409;52.168;20.878;2023-04-27T08:17:34;100709.61;;;12.75;46.13
50484;BME280;36409;52.168;20.878;2023-04-27T08:20:10;100710.95;;;12.98;46.20
50484;BME280;36409;52.168;20.878;2023-04-27T08:22:44;100710.52;;;13.21;45.82
50484;BME280;36409;52.168;20.878;2023-04-27T08:25:16;100708.51;;;13.34;46.36
50484;BME280;36409;52.168;20.878;2023-04-27T08:27:49;100712.02;;;13.33;46.59
50484;BME280;36409;52.168;20.878;2023-04-27T08:30:21;100721.80;;;13.25;45.76
50484;BME280;36409;52.168;20.878;2023-04-27T08:32:54;100716.66;;;13.20;46.85
50484;BME280;36409;52.168;20.878;2023-04-27T08:35:28;100719.52;;;13.06;46.13
50484;BME280;36409;52.168;20.878;2023-04-27T08:38:02;100718.14;;;12.87;45.86
50484;BME280;36409;52.168;20.878;2023-04-27T08:40:34;100710.70;;;12.63;45.73
50484;BME280;36409;52.168;20.878;2023-04-27T08:43:08;100712.95;;;12.83;45.92
50484;BME280;36409;52.168;20.878;2023-04-27T08:45:39;100714.79;;;13.25;46.15
50484;BME280;36409;52.168;20.878;2023-04-27T08:48:20;100707.20;;;13.57;46.92
50484;BME280;36409;52.168;20.878;2023-04-27T08:50:54;100707.05;;;13.65;46.86
50484;BME280;36409;52.168;20.878;2023-04-27T08:53:28;100703.94;;;13.86;46.20
50484;BME280;36409;52.168;20.878;2023-04-27T08:56:00;100706.56;;;14.24;46.39
50484;BME280;36409;52.168;20.878;2023-04-27T08:58:38;100703.51;;;14.05;45.95
50484;BME280;36409;52.168;20.878;2023-04-27T09:01:11;100706.05;;;13.70;45.81
50484;BME280;36409;52.168;20.878;2023-04-27T09:03:44;100704.08;;;13.39;46.45
50484;BME280;36409;52.168;20.878;2023-04-27T09:06:30;100707.02;;;13.21;46.00
50484;BME280;36409;52.168;20.878;2023-04-27T09:09:03;100704.86;;;12.97;45.63
50484;BME280;36409;52.168;20.878;2023-04-27T09:11:38;100697.80;;;13.47;45.81
50484;BME280;36409;52.168;20.878;2023-04-27T09:14:21;100695.52;;;14.10;45.83
50484;BME280;36409;52.168;20.878;2023-04-27T09:16:58;100700.08;;;14.39;46.53
50484;BME280;36409;52.168;20.878;2023-04-27T09:19:33;100688.48;;;14.48;45.98
50484;BME280;36409;52.168;20.878;2023-04-27T09:22:09;100685.40;;;15.00;45.82
50484;BME280;36409;52.168;20.878;2023-04-27T09:24:52;100681.73;;;15.05;45.37
50484;BME280;36409;52.168;20.878;2023-04-27T09:27:25;100682.18;;;14.90;45.10
50484;BME280;36409;52.168;20.878;2023-04-27T09:29:57;100679.67;;;15.17;45.82
50484;BME280;36409;52.168;20.878;2023-04-27T09:32:32;100687.77;;;15.40;44.96
50484;BME280;36409;52.168;20.878;2023-04-27T09:35:12;100694.11;;;15.02;44.53
50484;BME280;36409;52.168;20.878;2023-04-27T09:37:45;100688.81;;;14.70;44.90
50484;BME280;36409;52.168;20.878;2023-04-27T09:40:19;100684.73;;;14.22;45.03
50484;BME280;36409;52.168;20.878;2023-04-27T09:42:54;100690.16;;;13.77;44.88
50484;BME280;36409;52.168;20.878;2023-04-27T09:45:28;100694.61;;;13.31;44.71
50484;BME280;36409;52.168;20.878;2023-04-27T09:48:04;100702.38;;;12.90;44.67
50484;BME280;36409;52.168;20.878;2023-04-27T09:50:38;100706.67;;;12.44;44.65
50484;BME280;36409;52.168;20.878;2023-04-27T09:53:13;100715.13;;;12.03;45.46
50484;BME280;36409;52.168;20.878;2023-04-27T09:55:53;100713.84;;;11.70;45.02
50484;BME280;36409;52.168;20.878;2023-04-27T09:58:47;100728.33;;;11.25;45.46
50484;BME280;36409;52.168;20.878;2023-04-27T10:01:29;100738.22;;;10.92;46.20
50484;BME280;36409;52.168;20.878;2023-04-27T10:04:17;100743.83;;;10.50;45.72
50484;BME280;36409;52.168;20.878;2023-04-27T10:07:01;100744.91;;;10.14;46.40
50484;BME280;36409;52.168;20.878;2023-04-27T10:09:42;100744.20;;;9.85;46.20
50484;BME280;36409;52.168;20.878;2023-04-27T10:12:20;100734.78;;;9.60;46.88
50484;BME280;36409;52.168;20.878;2023-04-27T10:14:54;100733.09;;;9.43;46.91
50484;BME280;36409;52.168;20.878;2023-04-27T10:17:30;100736.61;;;9.33;47.12
50484;BME280;36409;52.168;20.878;2023-04-27T10:20:05;100735.75;;;9.32;47.56
50484;BME280;36409;52.168;20.878;2023-04-27T10:22:40;100732.28;;;9.30;47.25
50484;BME280;36409;52.168;20.878;2023-04-27T10:25:21;100729.70;;;9.29;47.42
50484;BME280;36409;52.168;20.878;2023-04-27T10:27:55;100734.91;;;9.29;47.79
50484;BME280;36409;52.168;20.878;2023-04-27T10:30:32;100730.53;;;9.31;47.76
50484;BME280;36409;52.168;20.878;2023-04-27T10:33:07;100727.92;;;9.31;47.91
50484;BME280;36409;52.168;20.878;2023-04-27T10:35:41;100729.66;;;9.35;48.15
50484;BME280;36409;52.168;20.878;2023-04-27T10:38:17;100727.91;;;9.41;47.83
50484;BME280;36409;52.168;20.878;2023-04-27T10:40:56;100725.25;;;9.51;48.37
50484;BME280;36409;52.168;20.878;2023-04-27T10:43:32;100716.52;;;9.64;47.80
50484;BME280;36409;52.168;20.878;2023-04-27T10:46:10;100725.10;;;9.82;48.02
50484;BME280;36409;52.168;20.878;2023-04-27T10:48:44;100723.28;;;9.99;48.47
50484;BME280;36409;52.168;20.878;2023-04-27T10:51:17;100725.77;;;10.15;47.89
50484;BME280;36409;52.168;20.878;2023-04-27T10:53:53;100724.82;;;10.30;48.62
50484;BME280;36409;52.168;20.878;2023-04-27T10:56:26;100729.05;;;10.49;49.06
50484;BME280;36409;52.168;20.878;2023-04-27T10:59:03;100726.27;;;10.68;48.69
50484;BME280;36409;52.168;20.878;2023-04-27T11:01:36;100724.36;;;10.87;48.60
50484;BME280;36409;52.168;20.878;2023-04-27T11:04:09;100715.55;;;10.97;48.58
50484;BME280;36409;52.168;20.878;2023-04-27T11:06:46;100716.32;;;11.06;48.56
50484;BME280;36409;52.168;20.878;2023-04-27T11:09:27;100714.30;;;11.33;49.50
50484;BME280;36409;52.168;20.878;2023-04-27T11:11:59;100719.83;;;11.77;49.57
50484;BME280;36409;52.168;20.878;2023-04-27T11:14:31;100721.07;;;12.15;49.15
50484;BME280;36409;52.168;20.878;2023-04-27T11:17:05;100720.84;;;12.30;48.51
50484;BME280;36409;52.168;20.878;2023-04-27T11:19:44;100729.36;;;12.43;47.72
50484;BME280;36409;52.168;20.878;2023-04-27T11:22:18;100722.91;;;12.64;48.72
50484;BME280;36409;52.168;20.878;2023-04-27T11:24:51;100720.97;;;12.76;47.80
50484;BME280;36409;52.168;20.878;2023-04-27T11:27:34;100729.63;;;12.79;47.26
50484;BME280;36409;52.168;20.878;2023-04-27T11:30:19;100724.44;;;12.76;47.48
50484;BME280;36409;52.168;20.878;2023-04-27T11:32:52;100729.59;;;12.82;47.94
50484;BME280;36409;52.168;20.878;2023-04-27T11:35:34;100726.13;;;12.79;47.47
50484;BME280;36409;52.168;20.878;2023-04-27T11:38:06;100720.04;;;12.78;47.16
50484;BME280;36409;52.168;20.878;2023-04-27T11:40:39;100721.73;;;12.81;46.67
50484;BME280;36409;52.168;20.878;2023-04-27T11:43:14;100724.27;;;12.87;47.11
50484;BME280;36409;52.168;20.878;2023-04-27T11:45:45;100719.16;;;12.79;47.44
50484;BME280;36409;52.168;20.878;2023-04-27T11:48:18;100714.63;;;12.88;47.43
50484;BME280;36409;52.168;20.878;2023-04-27T11:50:51;100710.27;;;12.88;46.54
50484;BME280;36409;52.168;20.878;2023-04-27T11:53:31;100710.95;;;12.98;46.63
50484;BME280;36409;52.168;20.878;2023-04-27T11:56:08;100716.84;;;13.11;46.85
50484;BME280;36409;52.168;20.878;2023-04-27T11:58:41;100707.95;;;13.18;47.26
50484;BME280;36409;52.168;20.878;2023-04-27T12:01:16;100712.27;;;13.21;47.59
50484;BME280;36409;52.168;20.878;2023-04-27T12:04:04;100713.10;;;13.23;46.53
50484;BME280;36409;52.168;20.878;2023-04-27T12:06:38;100709.55;;;13.25;46.76
50484;BME280;36409;52.168;20.878;2023-04-27T12:09:10;100706.08;;;13.25;46.27
50484;BME280;36409;52.168;20.878;2023-04-27T12:11:43;100711.32;;;13.25;46.18
50484;BME280;36409;52.168;20.878;2023-04-27T12:14:16;100711.41;;;13.20;46.55
50484;BME280;36409;52.168;20.878;2023-04-27T12:16:50;100713.20;;;13.18;46.69
50484;BME280;36409;52.168;20.878;2023-04-27T12:19:22;100705.29;;;13.20;46.16
50484;BME280;36409;52.168;20.878;2023-04-27T12:21:57;100708.00;;;13.17;45.29
50484;BME280;36409;52.168;20.878;2023-04-27T12:24:28;100709.73;;;13.16;45.40
50484;BME280;36409;52.168;20.878;2023-04-27T12:27:03;100706.41;;;13.06;44.12
50484;BME280;36409;52.168;20.878;2023-04-27T12:29:35;100708.55;;;12.87;44.47
50484;BME280;36409;52.168;20.878;2023-04-27T12:32:08;100712.98;;;12.82;43.76
50484;BME280;36409;52.168;20.878;2023-04-27T12:34:40;100713.88;;;12.81;44.13
50484;BME280;36409;52.168;20.878;2023-04-27T12:37:13;100704.50;;;12.67;43.86
50484;BME280;36409;52.168;20.878;2023-04-27T12:39:45;100709.81;;;12.64;44.47
50484;BME280;36409;52.168;20.878;2023-04-27T12:42:19;100715.14;;;12.58;44.73
50484;BME280;36409;52.168;20.878;2023-04-27T12:44:55;100718.03;;;12.43;44.44
50484;BME280;36409;52.168;20.878;2023-04-27T12:47:28;100716.64;;;12.20;44.22
50484;BME280;36409;52.168;20.878;2023-04-27T12:50:03;100723.05;;;11.96;44.62
50484;BME280;36409;52.168;20.878;2023-04-27T12:52:36;100732.02;;;11.79;44.55
50484;BME280;36409;52.168;20.878;2023-04-27T12:55:09;100734.70;;;11.74;45.38
50484;BME280;36409;52.168;20.878;2023-04-27T12:58:01;100731.30;;;11.68;44.68
50484;BME280;36409;52.168;20.878;2023-04-27T13:00:34;100738.19;;;11.72;44.59
50484;BME280;36409;52.168;20.878;2023-04-27T13:03:07;100737.28;;;11.76;45.47
50484;BME280;36409;52.168;20.878;2023-04-27T13:05:40;100738.92;;;11.85;45.52
50484;BME280;36409;52.168;20.878;2023-04-27T13:08:14;100742.31;;;11.92;45.50
50484;BME280;36409;52.168;20.878;2023-04-27T13:10:47;100739.63;;;11.98;45.57
50484;BME280;36409;52.168;20.878;2023-04-27T13:13:20;100737.83;;;12.03;44.40
50484;BME280;36409;52.168;20.878;2023-04-27T13:15:53;100732.59;;;12.01;44.40
50484;BME280;36409;52.168;20.878;2023-04-27T13:18:26;100730.02;;;12.00;45.26